Time;durP1;ratioP1;P1;durP2;ratioP2;P2;SDS_P1;SDS_P2;PMS_P1;PMS_P2;Temp;Humidity;BMP_temperature;BMP_pressure;BME280_temperature;BME280_humidity;BME280_pressure;Samples;Min_cycle;Max_cycle;Signal;HPM_P1;HPM_P2
2023/05/12 00:02:24;;;;;;;88.03;28.60;;;11.10;99.90;;;;;;5046092;28;20055;-67
2023/05/12 00:04:50;;;;;;;89.70;29.63;;;11.10;99.90;;;;;;5062549;28;20696;-68
2023/05/12 00:07:15;;;;;;;100.93;29.77;;;11.10;99.90;;;;;;5046015;28;20105;-64
2023/05/12 00:09:41;;;;;;;92.38;30.08;;;11.10;99.90;;;;;;5063243;28;20506;-65
2023/05/12 00:12:08;;;;;;;101.78;31.15;;;11.10;99.90;;;;;;5063126;28;20132;-65
2023/05/12 00:14:35;;;;;;;93.78;31.30;;;11.10;99.90;;;;;;5046503;28;20033;-64
2023/05/12 00:17:05;;;;;;;90.95;30.05;;;11.10;99.90;;;;;;5064524;28;20358;-65
2023/05/12 00:19:32;;;;;;;99.88;30.40;;;11.10;99.90;;;;;;5063760;28;20036;-64
2023/05/12 00:21:58;;;;;;;102.20;30.70;;;11.10;99.90;;;;;;5059071;28;20040;-68
2023/05/12 00:24:24;;;;;;;89.30;28.90;;;11.10;99.90;;;;;;5083810;28;20554;-65
2023/05/12 00:26:50;;;;;;;107.78;30.85;;;11.10;99.90;;;;;;5066561;28;20083;-65
2023/05/12 00:29:16;;;;;;;94.97;29.08;;;11.10;99.90;;;;;;5046079;28;20106;-66
2023/05/12 00:31:41;;;;;;;106.55;30.13;;;11.10;99.90;;;;;;5046162;28;20033;-65
2023/05/12 00:34:07;;;;;;;97.90;29.67;;;11.20;99.90;;;;;;5046298;28;20151;-65
2023/05/12 00:36:33;;;;;;;117.88;31.02;;;11.20;99.90;;;;;;5067762;28;20043;-66
2023/05/12 00:38:59;;;;;;;104.18;30.77;;;11.20;99.90;;;;;;5066169;28;20129;-67
2023/05/12 00:41:24;;;;;;;79.50;28.10;;;11.20;99.90;;;;;;5066865;28;20051;-66
2023/05/12 00:43:51;;;;;;;101.90;29.70;;;11.20;99.90;;;;;;5068314;28;20074;-67
2023/05/12 00:46:17;;;;;;;111.35;30.85;;;11.20;99.90;;;;;;5069362;28;20048;-66
2023/05/12 00:48:44;;;;;;;106.90;30.17;;;11.20;99.90;;;;;;5070743;28;20039;-67
2023/05/12 00:51:12;;;;;;;100.53;30.92;;;11.20;99.90;;;;;;5062068;28;20113;-66
2023/05/12 00:53:38;;;;;;;94.97;29.77;;;11.20;99.90;;;;;;5081019;28;20048;-66
2023/05/12 00:56:04;;;;;;;110.72;31.98;;;11.20;99.90;;;;;;5069231;28;20560;-66
2023/05/12 00:58:31;;;;;;;112.28;29.00;;;11.20;99.90;;;;;;5064534;28;20063;-64
2023/05/12 01:00:56;;;;;;;112.35;31.25;;;11.30;99.90;;;;;;5049061;28;20114;-65
2023/05/12 01:03:22;;;;;;;128.57;32.92;;;11.30;99.90;;;;;;5049461;28;20040;-66
2023/05/12 01:05:53;;;;;;;109.57;33.33;;;11.30;99.90;;;;;;5065827;28;20479;-66
2023/05/12 01:08:20;;;;;;;112.47;31.75;;;11.30;99.90;;;;;;5049699;28;20547;-65
2023/05/12 01:10:46;;;;;;;115.40;33.80;;;11.30;99.90;;;;;;5065891;28;20060;-66
2023/05/12 01:13:12;;;;;;;114.78;34.55;;;11.30;99.90;;;;;;5048608;28;20044;-66
2023/05/12 01:15:43;;;;;;;92.63;32.83;;;11.30;99.90;;;;;;5049406;28;20036;-66
2023/05/12 01:18:11;;;;;;;91.30;32.35;;;11.40;99.90;;;;;;5050445;28;20135;-67
2023/05/12 01:20:37;;;;;;;88.00;32.13;;;11.40;99.90;;;;;;5060273;28;20075;-62
2023/05/12 01:23:04;;;;;;;93.13;32.97;;;11.40;99.90;;;;;;5066857;28;20044;-61
2023/05/12 01:25:33;;;;;;;100.15;34.75;;;11.40;99.90;;;;;;5086160;28;20070;-62
2023/05/12 01:28:00;;;;;;;84.60;33.40;;;11.50;99.90;;;;;;5081084;28;20053;-63
2023/05/12 01:30:26;;;;;;;98.32;35.47;;;11.50;99.90;;;;;;5082145;28;20127;-64
2023/05/12 01:32:52;;;;;;;84.43;34.65;;;11.60;99.90;;;;;;5066599;28;20051;-64
2023/05/12 01:35:17;;;;;;;85.55;33.65;;;11.60;99.90;;;;;;5061308;28;20044;-63
2023/05/12 01:37:44;;;;;;;80.50;33.15;;;11.60;99.90;;;;;;5065407;28;20048;-64
2023/05/12 01:40:10;;;;;;;87.03;34.28;;;11.60;99.90;;;;;;5055189;28;20032;-65
2023/05/12 01:42:39;;;;;;;93.10;36.53;;;11.60;99.90;;;;;;5068246;28;20043;-64
2023/05/12 01:45:06;;;;;;;84.95;34.08;;;11.60;99.90;;;;;;5066509;28;20048;-64
2023/05/12 01:47:32;;;;;;;101.90;37.20;;;11.60;99.90;;;;;;5062565;28;20040;-64
2023/05/12 01:49:57;;;;;;;92.65;34.72;;;11.60;99.90;;;;;;5085534;28;20687;-63
2023/05/12 01:52:24;;;;;;;94.45;34.08;;;11.60;99.90;;;;;;5068495;28;20040;-65
2023/05/12 01:54:50;;;;;;;86.93;35.00;;;11.60;99.90;;;;;;5065241;28;20124;-62
2023/05/12 01:57:16;;;;;;;89.20;34.15;;;11.50;99.90;;;;;;5047467;28;20075;-64
2023/05/12 01:59:42;;;;;;;90.60;34.75;;;11.60;99.90;;;;;;5064826;28;20072;-64
2023/05/12 02:02:08;;;;;;;93.85;36.05;;;11.50;99.90;;;;;;5064999;28;20589;-64
2023/05/12 02:04:33;;;;;;;90.32;35.55;;;11.60;99.90;;;;;;5047946;28;20121;-64
2023/05/12 02:07:00;;;;;;;102.22;37.05;;;11.60;99.90;;;;;;5068845;28;20048;-67
2023/05/12 02:09:26;;;;;;;89.65;35.45;;;11.50;99.90;;;;;;5048025;28;20224;-65
2023/05/12 02:11:52;;;;;;;98.65;39.22;;;11.50;99.90;;;;;;5064716;28;20114;-63
2023/05/12 02:14:18;;;;;;;92.93;37.30;;;11.50;99.90;;;;;;5065361;28;20037;-63
2023/05/12 02:16:44;;;;;;;88.70;34.70;;;11.50;99.90;;;;;;5064307;28;20041;-65
2023/05/12 02:19:10;;;;;;;97.53;37.97;;;11.50;99.90;;;;;;5084797;28;20071;-64
2023/05/12 02:21:35;;;;;;;92.43;37.50;;;11.50;99.90;;;;;;5074426;28;20083;-63
2023/05/12 02:24:01;;;;;;;99.00;37.83;;;11.50;99.90;;;;;;5077208;28;20044;-64
2023/05/12 02:26:27;;;;;;;91.68;36.00;;;11.50;99.90;;;;;;5081312;28;20219;-63
2023/05/12 02:28:53;;;;;;;106.78;36.67;;;11.50;99.90;;;;;;5064042;28;20036;-64
2023/05/12 02:31:19;;;;;;;101.18;37.38;;;11.50;99.90;;;;;;5065047;28;20044;-63
2023/05/12 02:33:44;;;;;;;103.03;37.38;;;11.50;99.90;;;;;;5064467;28;20051;-65
2023/05/12 02:36:10;;;;;;;110.97;37.53;;;11.50;99.90;;;;;;5047269;28;20842;-64
2023/05/12 02:38:36;;;;;;;108.93;36.92;;;11.50;99.90;;;;;;5047987;28;20128;-62
2023/05/12 02:41:01;;;;;;;100.82;37.80;;;11.50;99.90;;;;;;5066171;28;20064;-63
2023/05/12 02:43:27;;;;;;;103.45;37.95;;;11.50;99.90;;;;;;5064127;28;20166;-64
2023/05/12 02:45:53;;;;;;;100.45;35.78;;;11.40;99.90;;;;;;5046530;28;20127;-62
2023/05/12 02:48:19;;;;;;;110.63;36.72;;;11.40;99.90;;;;;;5081065;28;20040;-65
2023/05/12 02:50:45;;;;;;;106.72;37.53;;;11.40;99.90;;;;;;5080629;28;20454;-63
2023/05/12 02:53:10;;;;;;;121.93;38.80;;;11.40;99.90;;;;;;5065139;28;20048;-64
2023/05/12 02:55:36;;;;;;;116.07;37.08;;;11.40;99.90;;;;;;5063680;28;20100;-64
2023/05/12 02:58:02;;;;;;;114.55;38.53;;;11.40;99.90;;;;;;5046909;28;20491;-64
2023/05/12 03:00:28;;;;;;;108.65;38.00;;;11.40;99.90;;;;;;5064211;28;20498;-63
2023/05/12 03:02:53;;;;;;;120.15;39.22;;;11.40;99.90;;;;;;5047683;28;20040;-64
2023/05/12 03:05:19;;;;;;;108.32;40.10;;;11.40;99.90;;;;;;5064881;28;20449;-64
2023/05/12 03:07:48;;;;;;;105.00;39.42;;;11.40;99.90;;;;;;5063542;28;20044;-64
2023/05/12 03:10:14;;;;;;;108.05;40.35;;;11.40;99.90;;;;;;5063867;28;20512;-63
2023/05/12 03:12:40;;;;;;;103.00;39.13;;;11.40;99.90;;;;;;5063720;28;20372;-66
2023/05/12 03:15:07;;;;;;;116.47;40.15;;;11.40;99.90;;;;;;5063469;28;20407;-62
2023/05/12 03:17:33;;;;;;;110.00;41.25;;;11.40;99.90;;;;;;5066500;28;20028;-63
2023/05/12 03:19:59;;;;;;;119.43;42.13;;;11.40;99.90;;;;;;5066956;28;20063;-61
2023/05/12 03:22:25;;;;;;;126.70;41.85;;;11.40;99.90;;;;;;5063393;28;20491;-65
2023/05/12 03:24:51;;;;;;;121.45;41.20;;;11.40;99.90;;;;;;5068136;28;20558;-64
2023/05/12 03:27:17;;;;;;;115.10;40.90;;;11.40;99.90;;;;;;5072843;28;20075;-65
2023/05/12 03:29:43;;;;;;;120.53;41.55;;;11.40;99.90;;;;;;5082864;28;20671;-66
2023/05/12 03:32:08;;;;;;;110.15;40.35;;;11.40;99.90;;;;;;5054232;28;20040;-63
2023/05/12 03:34:34;;;;;;;120.13;40.22;;;11.40;99.90;;;;;;5063215;28;20254;-64
2023/05/12 03:37:00;;;;;;;129.15;41.28;;;11.40;99.90;;;;;;5048458;28;20071;-65
2023/05/12 03:39:26;;;;;;;125.50;41.35;;;11.40;99.90;;;;;;5046670;28;20544;-61
2023/05/12 03:41:51;;;;;;;131.60;43.40;;;11.40;99.90;;;;;;5047227;28;20055;-64
2023/05/12 03:44:17;;;;;;;125.18;41.15;;;11.40;99.90;;;;;;5069910;28;20502;-65
2023/05/12 03:46:43;;;;;;;124.22;41.35;;;11.40;99.90;;;;;;5057585;28;20032;-63
2023/05/12 03:49:09;;;;;;;135.75;42.13;;;11.40;99.90;;;;;;5062973;28;20483;-64
2023/05/12 03:51:35;;;;;;;131.98;42.78;;;11.40;99.90;;;;;;5046818;28;20036;-63
2023/05/12 03:54:00;;;;;;;135.20;40.88;;;11.40;99.90;;;;;;5063386;28;20139;-62
2023/05/12 03:56:27;;;;;;;138.77;42.92;;;11.40;99.90;;;;;;5063577;28;20553;-64
2023/05/12 03:58:53;;;;;;;132.85;42.42;;;11.40;99.90;;;;;;5064650;28;20094;-64
2023/05/12 04:01:18;;;;;;;126.50;39.85;;;11.40;99.90;;;;;;5046666;28;20044;-62
2023/05/12 04:03:44;;;;;;;128.50;41.15;;;11.40;99.90;;;;;;5062853;28;20048;-62
2023/05/12 04:06:11;;;;;;;135.90;41.00;;;11.40;99.90;;;;;;5066450;28;20118;-63
2023/05/12 04:08:36;;;;;;;134.60;41.20;;;11.40;99.90;;;;;;5063311;28;20041;-64
2023/05/12 04:11:03;;;;;;;133.07;40.50;;;11.40;99.90;;;;;;5048899;28;20049;-62
2023/05/12 04:13:30;;;;;;;135.98;42.38;;;11.40;99.90;;;;;;5068627;28;20573;-64
2023/05/12 04:15:57;;;;;;;129.77;41.25;;;11.40;99.90;;;;;;5049303;28;20037;-63
2023/05/12 04:18:23;;;;;;;131.18;41.50;;;11.50;99.90;;;;;;5067258;28;20070;-63
2023/05/12 04:20:49;;;;;;;145.50;42.85;;;11.50;99.90;;;;;;5050530;28;20124;-63
2023/05/12 04:23:15;;;;;;;145.18;42.83;;;11.50;99.90;;;;;;5072283;28;20127;-64
2023/05/12 04:25:41;;;;;;;147.35;43.85;;;11.50;99.90;;;;;;5056252;28;20644;-64
2023/05/12 04:28:08;;;;;;;146.88;43.90;;;11.50;99.90;;;;;;5074631;28;20071;-60
2023/05/12 04:30:34;;;;;;;143.43;44.33;;;11.50;99.90;;;;;;5088376;28;20104;-63
2023/05/12 04:33:00;;;;;;;137.30;40.75;;;11.50;99.90;;;;;;5067211;28;20747;-64
2023/05/12 04:35:26;;;;;;;140.57;42.80;;;11.50;99.90;;;;;;5082915;28;20155;-64
2023/05/12 04:37:52;;;;;;;136.63;43.10;;;11.60;99.90;;;;;;5069041;28;20400;-63
2023/05/12 04:40:18;;;;;;;134.05;43.33;;;11.60;99.90;;;;;;5049988;28;20037;-67
2023/05/12 04:42:44;;;;;;;147.98;43.63;;;11.60;99.90;;;;;;5066517;28;20042;-65
2023/05/12 04:45:10;;;;;;;140.68;43.42;;;11.60;99.90;;;;;;5048788;28;20097;-65
2023/05/12 04:47:36;;;;;;;145.30;44.10;;;11.60;99.90;;;;;;5049506;28;20119;-63
2023/05/12 04:50:03;;;;;;;132.85;42.92;;;11.60;99.90;;;;;;5066103;28;20796;-63
2023/05/12 04:52:29;;;;;;;143.05;44.72;;;11.60;99.90;;;;;;5049634;28;20048;-62
2023/05/12 04:54:54;;;;;;;157.02;46.30;;;11.60;99.90;;;;;;5050078;28;20037;-62
2023/05/12 04:57:20;;;;;;;147.25;45.30;;;11.60;99.90;;;;;;5067468;28;20047;-61
2023/05/12 04:59:46;;;;;;;161.52;47.13;;;11.60;99.90;;;;;;5067063;28;20546;-64
2023/05/12 05:02:12;;;;;;;168.82;46.95;;;11.60;99.90;;;;;;5066231;28;20044;-64
2023/05/12 05:04:37;;;;;;;176.23;48.33;;;11.60;99.90;;;;;;5066014;28;20491;-63
2023/05/12 05:07:03;;;;;;;162.18;48.95;;;11.60;99.90;;;;;;5068327;28;20040;-61
2023/05/12 05:09:29;;;;;;;163.40;47.58;;;11.60;99.90;;;;;;5066667;28;20087;-60
2023/05/12 05:11:55;;;;;;;160.45;47.90;;;11.60;99.90;;;;;;5078403;28;20052;-62
2023/05/12 05:14:21;;;;;;;164.13;48.08;;;11.60;99.90;;;;;;5069575;28;20033;-62
2023/05/12 05:16:47;;;;;;;187.82;49.97;;;11.60;99.90;;;;;;5048603;28;20040;-64
2023/05/12 05:19:13;;;;;;;168.88;50.35;;;11.60;99.90;;;;;;5069332;28;20043;-62
2023/05/12 05:21:39;;;;;;;161.88;48.53;;;11.60;99.90;;;;;;5079183;28;20051;-61
2023/05/12 05:24:05;;;;;;;157.32;46.63;;;11.60;99.90;;;;;;5056693;28;20308;-62
2023/05/12 05:26:31;;;;;;;142.15;44.78;;;11.60;99.90;;;;;;5078836;28;20052;-61
2023/05/12 05:28:57;;;;;;;145.18;47.00;;;11.60;99.90;;;;;;5086264;28;20039;-61
2023/05/12 05:31:23;;;;;;;138.38;45.75;;;11.60;99.90;;;;;;5057256;28;20040;-63
2023/05/12 05:33:49;;;;;;;150.98;45.03;;;11.70;99.90;;;;;;5067387;28;20041;-62
2023/05/12 05:36:15;;;;;;;146.55;46.28;;;11.70;99.90;;;;;;5067820;28;20047;-62
2023/05/12 05:38:41;;;;;;;147.30;47.20;;;11.70;99.90;;;;;;5065883;28;20029;-60
2023/05/12 05:41:07;;;;;;;143.00;44.00;;;11.70;99.90;;;;;;5082698;28;20040;-61
2023/05/12 05:43:33;;;;;;;161.15;45.63;;;11.70;99.90;;;;;;5083030;28;20047;-62
2023/05/12 05:45:59;;;;;;;143.23;45.10;;;11.70;99.90;;;;;;5083480;28;20419;-62
2023/05/12 05:48:25;;;;;;;155.55;46.40;;;11.70;99.90;;;;;;5048869;28;20484;-61
2023/05/12 05:50:51;;;;;;;147.93;45.60;;;11.70;99.90;;;;;;5069873;28;20173;-63
2023/05/12 05:53:18;;;;;;;164.00;47.08;;;11.70;99.90;;;;;;5073060;28;20362;-63
2023/05/12 05:55:45;;;;;;;144.85;45.40;;;11.70;99.90;;;;;;5068841;28;20039;-63
2023/05/12 05:58:11;;;;;;;162.93;46.50;;;11.80;99.90;;;;;;5078681;28;20043;-64
2023/05/12 06:00:37;;;;;;;144.38;46.75;;;11.80;99.90;;;;;;5056993;28;20037;-61
2023/05/12 06:03:03;;;;;;;150.05;45.22;;;11.80;99.90;;;;;;5077809;28;20047;-62
2023/05/12 06:05:28;;;;;;;147.35;46.72;;;11.90;99.90;;;;;;5067371;28;20059;-63
2023/05/12 06:07:54;;;;;;;136.43;45.80;;;11.90;99.90;;;;;;5069719;28;20052;-61
2023/05/12 06:10:20;;;;;;;139.77;45.08;;;12.00;99.90;;;;;;5078471;28;20067;-62
2023/05/12 06:12:46;;;;;;;128.38;44.85;;;12.00;99.90;;;;;;5075898;28;20127;-61
2023/05/12 06:15:12;;;;;;;133.68;45.80;;;12.00;99.90;;;;;;5081610;28;20043;-62
2023/05/12 06:17:38;;;;;;;128.70;44.42;;;12.10;99.90;;;;;;5075973;28;20410;-63
2023/05/12 06:20:05;;;;;;;125.78;44.95;;;12.10;99.90;;;;;;5081872;28;20036;-63
2023/05/12 06:22:32;;;;;;;115.68;43.55;;;12.10;99.90;;;;;;5066416;28;20056;-71
2023/05/12 06:24:57;;;;;;;121.95;41.95;;;12.20;99.90;;;;;;5068400;28;20048;-69
2023/05/12 06:27:23;;;;;;;114.60;43.20;;;12.20;99.90;;;;;;5056700;28;20545;-72
2023/05/12 06:29:50;;;;;;;120.20;42.42;;;12.20;99.90;;;;;;5048126;28;20399;-68
2023/05/12 06:32:16;;;;;;;108.20;42.10;;;12.30;99.90;;;;;;5047326;28;20060;-64
2023/05/12 06:34:42;;;;;;;105.10;42.78;;;12.30;99.90;;;;;;5064269;28;20048;-67
2023/05/12 06:37:08;;;;;;;104.03;41.20;;;12.40;99.90;;;;;;5047947;28;20052;-68
2023/05/12 06:39:34;;;;;;;95.35;41.13;;;12.40;99.90;;;;;;5053776;28;20032;-71
2023/05/12 06:42:00;;;;;;;98.55;42.15;;;12.40;99.90;;;;;;5063982;28;20205;-69
2023/05/12 06:44:26;;;;;;;101.95;42.50;;;12.50;99.90;;;;;;5047059;28;20049;-69
2023/05/12 06:46:52;;;;;;;93.53;42.92;;;12.50;99.90;;;;;;5071704;28;20032;-69
2023/05/12 06:49:17;;;;;;;97.88;41.15;;;12.60;99.90;;;;;;5067773;28;20047;-69
2023/05/12 06:51:44;;;;;;;101.93;42.50;;;12.60;99.90;;;;;;5067766;28;20036;-71
2023/05/12 06:54:10;;;;;;;90.75;40.33;;;12.60;99.90;;;;;;5064444;28;20450;-74
2023/05/12 06:56:36;;;;;;;99.80;42.25;;;12.60;99.90;;;;;;5047196;28;20607;-74
2023/05/12 06:59:03;;;;;;;104.55;42.95;;;12.70;99.90;;;;;;5064017;28;20079;-71
2023/05/12 07:01:30;;;;;;;98.30;41.63;;;12.70;99.90;;;;;;5047265;28;20170;-74
2023/05/12 07:03:57;;;;;;;94.60;42.50;;;12.70;99.90;;;;;;5047281;28;20044;-70
2023/05/12 07:06:24;;;;;;;98.22;42.17;;;12.80;99.90;;;;;;5063272;28;20037;-70
2023/05/12 07:08:49;;;;;;;85.93;40.67;;;12.80;99.90;;;;;;5063993;28;20400;-71
2023/05/12 07:11:19;;;;;;;91.22;41.97;;;12.90;99.90;;;;;;5047396;28;20048;-70
2023/05/12 07:13:46;;;;;;;94.88;41.83;;;12.90;99.90;;;;;;5047589;28;20048;-68
2023/05/12 07:16:15;;;;;;;87.38;40.33;;;12.90;99.90;;;;;;5046474;28;20658;-71
2023/05/12 07:18:42;;;;;;;81.90;39.30;;;12.90;99.90;;;;;;5049729;28;20045;-67
2023/05/12 07:21:08;;;;;;;84.63;40.60;;;13.00;99.90;;;;;;5077721;28;20055;-70
2023/05/12 07:23:35;;;;;;;83.30;41.08;;;13.00;99.90;;;;;;5068793;28;20052;-69
2023/05/12 07:26:02;;;;;;;78.95;39.50;;;13.10;99.90;;;;;;5078302;28;20412;-69
2023/05/12 07:28:35;;;;;;;85.00;41.50;;;13.10;99.90;;;;;;5064067;28;20040;-69
2023/05/12 07:31:08;;;;;;;86.93;41.95;;;13.20;99.90;;;;;;5046942;28;20447;-67
2023/05/12 07:33:35;;;;;;;89.93;43.10;;;13.20;99.90;;;;;;5063188;28;20044;-71
2023/05/12 07:36:03;;;;;;;86.32;42.78;;;13.30;99.90;;;;;;5047653;28;20041;-66
2023/05/12 07:38:29;;;;;;;88.93;43.47;;;13.40;99.90;;;;;;5047370;28;20496;-71
2023/05/12 07:40:59;;;;;;;79.30;44.20;;;13.50;99.90;;;;;;5047767;28;20520;-66
2023/05/12 07:43:25;;;;;;;79.57;43.83;;;13.70;99.90;;;;;;5063682;28;20040;-69
2023/05/12 07:45:51;;;;;;;77.80;45.33;;;13.80;99.90;;;;;;5048246;28;20683;-67
2023/05/12 07:48:17;;;;;;;85.25;46.13;;;13.90;99.90;;;;;;5066832;28;20492;-71
2023/05/12 07:50:42;;;;;;;76.55;45.13;;;14.00;99.90;;;;;;5050698;28;20795;-64
2023/05/12 07:53:08;;;;;;;72.65;42.55;;;14.10;99.90;;;;;;5067511;28;20044;-65
2023/05/12 07:55:34;;;;;;;75.53;43.05;;;14.10;99.90;;;;;;5074449;28;20045;-65
2023/05/12 07:58:00;;;;;;;70.45;43.53;;;14.10;99.90;;;;;;5068051;28;20072;-64
2023/05/12 08:00:27;;;;;;;70.53;42.45;;;14.20;99.90;;;;;;5051149;28;20110;-65
2023/05/12 08:02:53;;;;;;;83.32;45.67;;;14.20;99.90;;;;;;5049965;28;20047;-66
2023/05/12 08:05:18;;;;;;;72.82;44.40;;;14.20;99.90;;;;;;5049694;28;20070;-68
2023/05/12 08:07:45;;;;;;;74.18;44.33;;;14.30;99.90;;;;;;5067252;28;20048;-65
2023/05/12 08:10:14;;;;;;;68.30;43.45;;;14.30;99.90;;;;;;5050207;28;20056;-64
2023/05/12 08:12:40;;;;;;;70.25;44.88;;;14.40;99.90;;;;;;5050315;28;20048;-63
2023/05/12 08:15:07;;;;;;;65.65;40.40;;;14.40;99.90;;;;;;5049838;28;20167;-67
2023/05/12 08:17:33;;;;;;;65.28;42.55;;;14.40;99.90;;;;;;5066847;28;20425;-64
2023/05/12 08:20:03;;;;;;;61.00;41.10;;;14.50;99.90;;;;;;5063440;28;20048;-64
2023/05/12 08:22:29;;;;;;;58.45;40.83;;;14.60;99.90;;;;;;5070680;28;20048;-67
2023/05/12 08:24:55;;;;;;;66.95;44.05;;;14.60;99.90;;;;;;5063776;28;20051;-68
2023/05/12 08:27:20;;;;;;;55.95;38.70;;;14.70;99.90;;;;;;5051372;28;20500;-70
2023/05/12 08:29:46;;;;;;;57.17;38.88;;;14.90;99.90;;;;;;5066362;28;20037;-69
2023/05/12 08:32:12;;;;;;;54.42;39.42;;;15.00;99.90;;;;;;5066223;28;20040;-69
2023/05/12 08:34:38;;;;;;;56.70;37.90;;;15.00;99.90;;;;;;5049658;28;20050;-66
2023/05/12 08:37:05;;;;;;;53.63;38.13;;;15.10;99.90;;;;;;5049568;28;20040;-68
2023/05/12 08:39:32;;;;;;;48.53;36.05;;;15.20;99.90;;;;;;5050280;28;20044;-65
2023/05/12 08:42:23;;;;;;;56.00;37.50;;;15.20;99.90;;;;;;5050212;28;20068;-63
2023/05/12 08:44:49;;;;;;;59.00;40.85;;;15.30;99.90;;;;;;5066612;28;20183;-67
2023/05/12 08:47:18;;;;;;;55.08;38.13;;;15.40;99.90;;;;;;5061240;28;20051;-66
2023/05/12 08:49:48;;;;;;;58.80;40.90;;;15.50;99.90;;;;;;5070077;28;20047;-66
2023/05/12 08:52:17;;;;;;;54.63;39.58;;;15.60;99.90;;;;;;5072295;28;20047;-66
2023/05/12 08:54:43;;;;;;;51.90;38.35;;;15.70;99.90;;;;;;5066285;28;20041;-64
2023/05/12 08:57:10;;;;;;;51.30;35.65;;;15.80;99.90;;;;;;5065719;28;20098;-64
2023/05/12 08:59:38;;;;;;;46.85;35.45;;;16.00;99.90;;;;;;5049026;28;20045;-65
2023/05/12 09:02:06;;;;;;;43.22;34.13;;;16.00;99.90;;;;;;5058943;28;20273;-66
2023/05/12 09:04:32;;;;;;;51.45;37.10;;;16.10;99.90;;;;;;5086140;28;20040;-65
2023/05/12 09:06:58;;;;;;;46.40;34.75;;;16.20;99.90;;;;;;5067535;28;20050;-64
2023/05/12 09:09:26;;;;;;;48.00;36.88;;;16.20;99.90;;;;;;5069453;28;20060;-64
2023/05/12 09:11:55;;;;;;;48.70;35.20;;;16.30;99.90;;;;;;5086425;28;20126;-66
2023/05/12 09:14:24;;;;;;;45.05;34.08;;;16.40;99.90;;;;;;5069337;28;20044;-65
2023/05/12 09:16:57;;;;;;;47.67;36.78;;;16.40;99.90;;;;;;5071714;28;20075;-65
2023/05/12 09:19:23;;;;;;;50.67;37.50;;;16.50;99.90;;;;;;5070423;28;20043;-66
2023/05/12 09:21:49;;;;;;;50.85;36.95;;;16.70;99.90;;;;;;5057195;28;20041;-66
2023/05/12 09:24:14;;;;;;;49.13;36.88;;;16.80;99.90;;;;;;5073491;28;20245;-65
2023/05/12 09:26:46;;;;;;;53.47;38.03;;;16.90;99.90;;;;;;5066543;28;20480;-64
2023/05/12 09:29:12;;;;;;;50.88;35.13;;;17.00;99.90;;;;;;5064838;28;20128;-63
2023/05/12 09:31:37;;;;;;;48.95;35.90;;;17.00;99.90;;;;;;5065425;28;20124;-63
2023/05/12 09:34:07;;;;;;;47.55;36.72;;;17.10;99.90;;;;;;5064569;28;20044;-64
2023/05/12 09:36:34;;;;;;;45.25;34.97;;;17.10;99.90;;;;;;5051680;28;20040;-64
2023/05/12 09:39:03;;;;;;;38.20;30.48;;;17.20;99.90;;;;;;5048963;28;20036;-64
2023/05/12 09:41:29;;;;;;;42.95;32.05;;;17.30;99.90;;;;;;5048861;28;20037;-64
2023/05/12 09:43:58;;;;;;;39.78;30.48;;;17.40;99.90;;;;;;5065287;28;20040;-66
2023/05/12 09:46:23;;;;;;;39.47;31.52;;;17.40;99.90;;;;;;5079580;28;20028;-64
2023/05/12 09:48:49;;;;;;;37.33;29.48;;;17.30;99.90;;;;;;5081808;28;20627;-64
2023/05/12 09:51:17;;;;;;;36.90;30.77;;;17.30;99.90;;;;;;5065086;28;20036;-64
2023/05/12 09:53:45;;;;;;;38.78;29.88;;;17.30;99.90;;;;;;5065297;28;20505;-64
2023/05/12 09:56:15;;;;;;;37.17;30.35;;;17.40;99.90;;;;;;5066803;28;20039;-67
2023/05/12 09:58:45;;;;;;;38.83;30.95;;;17.40;99.90;;;;;;5069064;28;20036;-65
2023/05/12 10:01:17;;;;;;;35.25;28.20;;;17.50;99.90;;;;;;5056784;28;20036;-65
2023/05/12 10:03:46;;;;;;;38.22;30.35;;;17.50;99.90;;;;;;5048415;28;20605;-65
2023/05/12 10:06:19;;;;;;;37.70;30.13;;;17.60;99.90;;;;;;5068076;28;20052;-63
2023/05/12 10:09:15;;;;;;;35.83;29.20;;;17.60;99.90;;;;;;5067751;28;20035;-68
2023/05/12 10:11:41;;;;;;;34.72;28.23;;;17.60;99.90;;;;;;5065238;28;20139;-64
2023/05/12 10:14:08;;;;;;;36.88;29.60;;;17.70;99.90;;;;;;5074337;28;20036;-61
2023/05/12 10:16:35;;;;;;;33.75;28.52;;;17.80;99.90;;;;;;5046272;28;20036;-65
2023/05/12 10:19:03;;;;;;;36.75;27.33;;;17.90;99.90;;;;;;5048540;28;20080;-66
2023/05/12 10:21:29;;;;;;;46.55;29.80;;;18.00;99.90;;;;;;5063922;28;20032;-64
2023/05/12 10:23:56;;;;;;;35.70;27.50;;;18.00;99.90;;;;;;5052499;28;20040;-64
2023/05/12 10:26:22;;;;;;;31.55;26.58;;;18.00;99.90;;;;;;5067756;28;20115;-63
2023/05/12 10:28:49;;;;;;;37.92;29.13;;;18.10;99.90;;;;;;5067985;28;20166;-64
2023/05/12 10:31:15;;;;;;;32.10;26.13;;;18.20;99.90;;;;;;5073456;28;20808;-63
2023/05/12 10:33:40;;;;;;;35.55;28.33;;;18.30;99.90;;;;;;5063804;28;20166;-64
2023/05/12 10:36:16;;;;;;;31.42;25.70;;;18.40;99.90;;;;;;5063186;28;20044;-64
2023/05/12 10:38:42;;;;;;;31.60;25.77;;;18.60;99.90;;;;;;5064144;28;20629;-65
2023/05/12 10:41:08;;;;;;;31.73;24.42;;;18.70;99.90;;;;;;5065595;28;20040;-64
2023/05/12 10:43:44;;;;;;;29.90;25.00;;;18.90;99.90;;;;;;5047896;28;20040;-66
2023/05/12 10:46:19;;;;;;;29.85;23.92;;;19.00;99.90;;;;;;5046843;28;20557;-66
2023/05/12 10:49:22;;;;;;;32.70;23.02;;;19.00;99.90;;;;;;5064165;28;20048;-65
2023/05/12 10:51:48;;;;;;;28.40;22.33;;;19.00;99.90;;;;;;5030171;28;20052;-66
2023/05/12 10:54:24;;;;;;;28.70;22.70;;;19.10;99.90;;;;;;5066430;28;20439;-66
2023/05/12 10:56:50;;;;;;;24.90;19.73;;;19.10;99.90;;;;;;5061569;28;20292;-67
2023/05/12 10:59:21;;;;;;;24.45;19.45;;;19.00;99.90;;;;;;5063990;28;20052;-63
2023/05/12 11:02:02;;;;;;;23.25;20.63;;;19.00;99.90;;;;;;5047200;28;20526;-64
2023/05/12 11:05:03;;;;;;;23.77;18.70;;;19.20;99.90;;;;;;5046602;28;20048;-63
2023/05/12 11:07:32;;;;;;;22.42;17.55;;;19.40;99.90;;;;;;5051273;28;20091;-66
2023/05/12 11:10:00;;;;;;;25.27;18.52;;;19.40;99.90;;;;;;5083952;28;20062;-63
2023/05/12 11:12:28;;;;;;;22.63;18.67;;;19.50;99.90;;;;;;5067165;28;20618;-62
2023/05/12 11:14:54;;;;;;;23.05;18.10;;;19.40;99.90;;;;;;5067576;28;20447;-65
2023/05/12 11:17:19;;;;;;;20.60;16.63;;;19.30;99.90;;;;;;5063350;28;20052;-62
2023/05/12 11:19:48;;;;;;;20.08;15.20;;;19.30;99.90;;;;;;5068908;28;20444;-63
2023/05/12 11:22:20;;;;;;;19.50;15.85;;;19.20;99.90;;;;;;5070317;28;20047;-63
2023/05/12 11:24:48;;;;;;;19.30;16.33;;;19.30;99.90;;;;;;5062023;28;20169;-64
2023/05/12 11:27:16;;;;;;;16.98;13.40;;;19.50;99.90;;;;;;5067633;28;20526;-64
2023/05/12 11:29:43;;;;;;;19.75;14.35;;;19.70;99.90;;;;;;5072729;28;20420;-64
2023/05/12 11:32:13;;;;;;;19.15;13.85;;;19.90;99.90;;;;;;5046823;28;20071;-62
2023/05/12 11:34:38;;;;;;;17.92;13.52;;;20.00;99.90;;;;;;5062713;28;20125;-63
2023/05/12 11:37:05;;;;;;;18.67;13.27;;;20.20;99.90;;;;;;5063003;28;20083;-62
2023/05/12 11:39:31;;;;;;;16.10;13.13;;;20.30;99.90;;;;;;5065414;28;20040;-63
2023/05/12 11:42:08;;;;;;;18.42;13.20;;;20.30;99.90;;;;;;5064030;28;20574;-65
2023/05/12 11:44:34;;;;;;;16.52;12.82;;;20.30;99.90;;;;;;5046600;28;20905;-64
2023/05/12 11:47:04;;;;;;;15.80;12.40;;;20.30;99.90;;;;;;5046635;28;20349;-64
2023/05/12 11:49:31;;;;;;;16.10;10.73;;;20.40;99.90;;;;;;5062489;28;20419;-63
2023/05/12 11:51:59;;;;;;;11.43;5.47;;;20.50;99.90;;;;;;5063981;28;20044;-64
2023/05/12 11:54:28;;;;;;;10.00;6.25;;;20.70;99.90;;;;;;5050156;28;20047;-66
2023/05/12 11:56:55;;;;;;;11.55;7.45;;;20.70;99.90;;;;;;5066536;28;20043;-63
2023/05/12 11:59:26;;;;;;;9.55;7.50;;;20.80;99.90;;;;;;5083365;28;20486;-63
2023/05/12 12:01:51;;;;;;;12.48;7.03;;;20.90;99.90;;;;;;5060989;28;20032;-61
2023/05/12 12:04:17;;;;;;;9.30;7.13;;;20.90;99.90;;;;;;5062914;28;20044;-67
2023/05/12 12:06:43;;;;;;;9.02;7.43;;;20.80;99.90;;;;;;5066649;28;20447;-63
2023/05/12 12:09:09;;;;;;;12.60;8.20;;;20.80;99.90;;;;;;5062597;28;20072;-63
2023/05/12 12:11:35;;;;;;;14.75;8.20;;;20.70;99.90;;;;;;5064133;28;20109;-64
2023/05/12 12:14:01;;;;;;;10.55;7.80;;;20.80;99.90;;;;;;5064534;28;20037;-63
2023/05/12 12:16:28;;;;;;;9.02;6.28;;;20.80;99.90;;;;;;5061907;28;20522;-69
2023/05/12 12:18:54;;;;;;;8.05;5.82;;;20.80;99.90;;;;;;5063825;28;20101;-62
2023/05/12 12:21:20;;;;;;;9.85;5.90;;;20.80;99.90;;;;;;5062353;28;20617;-63
2023/05/12 12:23:47;;;;;;;10.65;5.50;;;20.90;99.90;;;;;;5062401;28;20053;-68